createdAt,value
2022-07-25T00:01:56.878Z,98283.69
2022-07-25T00:05:10.314Z,98285.44
2022-07-25T00:08:21.973Z,98280.72
2022-07-25T00:11:27.562Z,98282.84
2022-07-25T00:14:36.001Z,98283.94
2022-07-25T00:17:42.524Z,98283.41
2022-07-25T00:20:48.297Z,98277.47
2022-07-25T00:23:56.713Z,98262.09
2022-07-25T00:27:09.157Z,98258.28
2022-07-25T00:30:18.365Z,98269.41
2022-07-25T00:33:36.298Z,98266.41
2022-07-25T00:36:42.009Z,98267.91
2022-07-25T00:39:48.492Z,98257.50
2022-07-25T00:42:54.151Z,98250.63
2022-07-25T00:46:08.724Z,98252.09
2022-07-25T00:49:19.378Z,98246.44
2022-07-25T00:52:26.609Z,98259.91
2022-07-25T00:55:35.083Z,98254.53
2022-07-25T00:58:41.099Z,98254.34
2022-07-25T01:01:54.610Z,98254.66
2022-07-25T01:05:00.340Z,98253.09
2022-07-25T01:08:13.083Z,98249.78
2022-07-25T01:11:18.879Z,98252.19
2022-07-25T01:14:25.571Z,98247.38
2022-07-25T01:17:33.716Z,98250.44
2022-07-25T01:20:42.008Z,98248.38
2022-07-25T01:23:47.663Z,98242.19
2022-07-25T01:26:55.875Z,98237.94
2022-07-25T01:30:01.527Z,98228.94
2022-07-25T01:33:12.579Z,98234.69
2022-07-25T01:36:20.859Z,98232.41
2022-07-25T01:39:26.445Z,98236.28
2022-07-25T01:42:32.076Z,98231.88
2022-07-25T01:45:38.421Z,98232.16
2022-07-25T01:48:45.235Z,98229.19
2022-07-25T01:51:53.462Z,98220.88
2022-07-25T01:54:59.186Z,98219.38
2022-07-25T01:58:05.299Z,98212.69
2022-07-25T02:01:13.026Z,98214.41
2022-07-25T02:04:18.821Z,98215.34
2022-07-25T02:07:27.158Z,98216.00
2022-07-25T02:10:43.196Z,98213.00
2022-07-25T02:13:48.875Z,98226.66
2022-07-25T02:16:57.764Z,98214.91
2022-07-25T02:20:08.269Z,98225.59
2022-07-25T02:23:21.753Z,98230.72
2022-07-25T02:26:27.857Z,98228.81
2022-07-25T02:29:33.507Z,98222.41
2022-07-25T02:32:44.879Z,98223.53
2022-07-25T02:35:57.390Z,98212.56
2022-07-25T02:39:07.680Z,98216.53
2022-07-25T02:42:15.637Z,98230.09
2022-07-25T02:45:21.528Z,98226.16
2022-07-25T02:48:33.846Z,98229.22
2022-07-25T02:51:39.552Z,98230.03
2022-07-25T02:54:47.682Z,98231.28
2022-07-25T02:57:56.332Z,98228.53
2022-07-25T03:01:02.005Z,98234.59
2022-07-25T03:04:11.815Z,98236.78
2022-07-25T03:07:19.116Z,98235.00
2022-07-25T03:10:29.920Z,98240.63
2022-07-25T03:13:36.106Z,98243.91
2022-07-25T03:16:42.040Z,98237.97
2022-07-25T03:19:47.826Z,98234.25
2022-07-25T03:22:53.625Z,98228.06
2022-07-25T03:26:05.580Z,98215.28
2022-07-25T03:29:11.285Z,98221.06
2022-07-25T03:32:19.169Z,98222.03
2022-07-25T03:35:26.323Z,98214.78
2022-07-25T03:38:32.115Z,98213.56
2022-07-25T03:41:48.339Z,98208.38
2022-07-25T03:45:19.308Z,98206.94
2022-07-25T03:48:24.922Z,98207.78
2022-07-25T03:51:33.722Z,98199.81
2022-07-25T03:54:39.288Z,98206.00
2022-07-25T03:57:47.515Z,98201.47
2022-07-25T04:00:53.186Z,98205.19
2022-07-25T04:03:59.358Z,98208.84
2022-07-25T04:07:29.545Z,98208.09
2022-07-25T04:10:35.963Z,98211.84
2022-07-25T04:13:44.973Z,98214.94
2022-07-25T04:16:50.557Z,98209.16
2022-07-25T04:19:59.265Z,98206.41
2022-07-25T04:23:05.025Z,98206.75
2022-07-25T04:26:10.992Z,98209.03
2022-07-25T04:29:19.329Z,98217.63
2022-07-25T04:32:31.420Z,98209.25
2022-07-25T04:35:38.645Z,98213.69
2022-07-25T04:38:50.447Z,98211.72
2022-07-25T04:41:56.225Z,98200.41
2022-07-25T04:45:26.482Z,98212.19
2022-07-25T04:48:32.446Z,98221.72
2022-07-25T04:51:38.015Z,98213.03
2022-07-25T04:54:46.580Z,98206.97
2022-07-25T04:57:52.259Z,98203.59
2022-07-25T05:01:00.587Z,98202.78
2022-07-25T05:04:12.661Z,98200.25
2022-07-25T05:07:18.228Z,98199.03
2022-07-25T05:10:23.827Z,98196.25
2022-07-25T05:13:29.391Z,98189.66
2022-07-25T05:16:38.891Z,98196.31
2022-07-25T05:19:45.143Z,98183.44
2022-07-25T05:22:50.702Z,98188.59
2022-07-25T05:25:56.361Z,98193.03
2022-07-25T05:29:03.961Z,98188.66
2022-07-25T05:32:12.339Z,98183.56
2022-07-25T05:35:18.749Z,98181.34
2022-07-25T05:38:25.044Z,98173.06
2022-07-25T05:41:30.655Z,98182.78
2022-07-25T05:44:36.734Z,98179.03
2022-07-25T05:47:44.945Z,98175.09
2022-07-25T05:50:50.556Z,98177.38
2022-07-25T05:53:56.238Z,98173.91
2022-07-25T05:57:01.908Z,98168.72
2022-07-25T06:00:10.628Z,98169.69
2022-07-25T06:03:18.996Z,98166.22
2022-07-25T06:06:24.744Z,98165.72
2022-07-25T06:09:30.809Z,98155.84
2022-07-25T06:12:39.009Z,98161.78
2022-07-25T06:15:48.869Z,98155.75
2022-07-25T06:18:56.989Z,98158.00
2022-07-25T06:22:02.599Z,98157.69
2022-07-25T06:25:09.953Z,98158.53
2022-07-25T06:28:18.146Z,98151.50
2022-07-25T06:31:24.174Z,98145.00
2022-07-25T06:34:32.809Z,98142.00
2022-07-25T06:37:41.717Z,98141.13
2022-07-25T06:40:47.262Z,98144.44
2022-07-25T06:43:52.799Z,98137.53
2022-07-25T06:46:59.591Z,98137.94
2022-07-25T06:50:11.238Z,98136.75
2022-07-25T06:53:17.234Z,98126.97
2022-07-25T06:56:31.762Z,98129.97
2022-07-25T06:59:37.274Z,98136.00
2022-07-25T07:02:53.590Z,98131.50
2022-07-25T07:06:02.051Z,98133.19
2022-07-25T07:09:14.546Z,98132.31
2022-07-25T07:12:30.393Z,98128.56
2022-07-25T07:15:36.513Z,98130.88
2022-07-25T07:18:47.241Z,98126.13
2022-07-25T07:21:57.448Z,98126.06
2022-07-25T07:25:08.003Z,98119.31
2022-07-25T07:28:14.269Z,98118.66
2022-07-25T07:31:28.840Z,98109.34
2022-07-25T07:34:34.416Z,98111.59
2022-07-25T07:37:47.247Z,98109.34
2022-07-25T07:40:52.825Z,98108.00
2022-07-25T07:44:02.369Z,98116.00
2022-07-25T07:47:14.509Z,98111.59
2022-07-25T07:50:25.630Z,98101.69
2022-07-25T07:53:46.968Z,98108.19
2022-07-25T07:56:52.602Z,98098.13
2022-07-25T07:59:59.529Z,98094.28
2022-07-25T08:03:06.956Z,98094.38
2022-07-25T08:06:12.633Z,98093.13
2022-07-25T08:09:20.966Z,98091.69
2022-07-25T08:12:27.405Z,98090.25
2022-07-25T08:15:33.135Z,98089.06
2022-07-25T08:18:38.782Z,98095.00
2022-07-25T08:21:46.867Z,98088.91
2022-07-25T08:24:55.527Z,98090.59
2022-07-25T08:28:05.015Z,98094.59
2022-07-25T08:31:11.122Z,98096.34
2022-07-25T08:34:16.691Z,98088.09
2022-07-25T08:37:22.287Z,98099.56
2022-07-25T08:40:32.897Z,98094.72
2022-07-25T08:43:40.931Z,98095.59
2022-07-25T08:46:47.797Z,98089.72
2022-07-25T08:49:53.871Z,98083.72
2022-07-25T08:53:36.097Z,98083.97
2022-07-25T08:56:44.550Z,98076.81
2022-07-25T08:59:50.073Z,98083.09
2022-07-25T09:02:57.090Z,98063.09
2022-07-25T09:06:04.999Z,98069.13
2022-07-25T09:09:14.089Z,98071.03
2022-07-25T09:12:30.032Z,98064.78
2022-07-25T09:15:40.078Z,98062.72
2022-07-25T09:18:52.205Z,98062.78
2022-07-25T09:22:04.959Z,98068.81
2022-07-25T09:25:30.034Z,98066.88
2022-07-25T09:28:46.386Z,98064.53
2022-07-25T09:31:54.275Z,98062.38
2022-07-25T09:34:59.846Z,98057.09
2022-07-25T09:38:17.367Z,98060.72
2022-07-25T09:41:37.611Z,98053.72
2022-07-25T09:44:46.937Z,98053.22
2022-07-25T09:47:59.090Z,98046.56
2022-07-25T09:51:15.834Z,98043.00
2022-07-25T09:54:26.248Z,98033.22
2022-07-25T09:57:34.008Z,98041.41
2022-07-25T10:00:46.432Z,98025.69
2022-07-25T10:03:57.116Z,98030.97
2022-07-25T10:07:20.292Z,98030.81
2022-07-25T10:10:32.454Z,98027.56
2022-07-25T10:13:39.436Z,98021.69
2022-07-25T10:16:52.443Z,98029.72
2022-07-25T10:19:58.977Z,98023.22
2022-07-25T10:23:05.247Z,98012.88
2022-07-25T10:26:28.203Z,98012.84
2022-07-25T10:29:38.135Z,98011.19
2022-07-25T10:32:53.755Z,98016.38
2022-07-25T10:36:11.277Z,98008.84
2022-07-25T10:39:21.506Z,97998.91
2022-07-25T10:42:28.258Z,98005.34
2022-07-25T10:45:46.398Z,98000.28
2022-07-25T10:49:08.273Z,97988.13
2022-07-25T10:52:20.904Z,97999.03
2022-07-25T10:55:38.201Z,97988.19
2022-07-25T10:58:55.095Z,97978.31
2022-07-25T11:02:01.261Z,97983.94
2022-07-25T11:05:12.858Z,97978.53
2022-07-25T11:08:22.176Z,97978.88
2022-07-25T11:11:38.743Z,97966.38
2022-07-25T11:14:49.241Z,97962.00
2022-07-25T11:17:58.740Z,97957.50
2022-07-25T11:21:15.025Z,97949.91
2022-07-25T11:24:20.882Z,97940.19
2022-07-25T11:27:36.331Z,97942.09
2022-07-25T11:30:42.179Z,97934.38
2022-07-25T11:33:52.431Z,97933.53
2022-07-25T11:37:04.549Z,97925.75
2022-07-25T11:40:16.483Z,97927.94
2022-07-25T11:43:27.367Z,97920.44
2022-07-25T11:46:33.087Z,97920.81
2022-07-25T11:49:48.767Z,97918.59
2022-07-25T11:53:04.982Z,97911.19
2022-07-25T11:56:42.316Z,97905.28
2022-07-25T11:59:46.295Z,97903.09
2022-07-25T12:02:53.526Z,97905.03
2022-07-25T12:05:59.168Z,97895.94
2022-07-25T12:09:27.990Z,97888.78
2022-07-25T12:12:50.745Z,97876.22
2022-07-25T12:15:59.279Z,97875.31
2022-07-25T12:19:05.750Z,97875.88
2022-07-25T12:22:11.453Z,97868.34
2022-07-25T12:25:30.823Z,97867.25
2022-07-25T12:28:36.716Z,97866.09
2022-07-25T12:31:42.294Z,97858.69
2022-07-25T12:34:47.849Z,97853.72
2022-07-25T12:37:54.017Z,97847.28
2022-07-25T12:41:08.724Z,97847.13
2022-07-25T12:44:18.449Z,97838.34
2022-07-25T12:47:25.307Z,97844.84
2022-07-25T12:50:30.866Z,97838.84
2022-07-25T12:53:42.506Z,97833.53
2022-07-25T12:56:51.326Z,97826.78
2022-07-25T12:59:57.306Z,97827.25
2022-07-25T13:03:03.732Z,97825.28
2022-07-25T13:06:10.255Z,97820.31
2022-07-25T13:09:16.038Z,97812.69
2022-07-25T13:12:25.717Z,97812.56
2022-07-25T13:15:31.302Z,97806.59
2022-07-25T13:18:40.217Z,97800.19
2022-07-25T13:21:46.795Z,97803.09
2022-07-25T13:24:52.407Z,97789.09
2022-07-25T13:28:00.656Z,97792.13
2022-07-25T13:31:18.800Z,97776.44
2022-07-25T13:34:25.489Z,97791.47
2022-07-25T13:37:31.114Z,97780.75
2022-07-25T13:40:40.909Z,97784.47
2022-07-25T13:43:49.060Z,97774.75
2022-07-25T13:46:56.104Z,97777.31
2022-07-25T13:50:01.626Z,97765.91
2022-07-25T13:53:08.652Z,97771.78
2022-07-25T13:56:16.017Z,97759.97
2022-07-25T13:59:24.875Z,97751.13
2022-07-25T14:02:30.580Z,97741.75
2022-07-25T14:05:38.800Z,97742.09
2022-07-25T14:08:46.440Z,97733.50
2022-07-25T14:11:52.498Z,97733.41
2022-07-25T14:15:03.100Z,97724.09
2022-07-25T14:18:09.801Z,97725.09
2022-07-25T14:21:15.423Z,97721.78
2022-07-25T14:24:21.242Z,97717.44
2022-07-25T14:27:27.312Z,97711.66
2022-07-25T14:30:35.574Z,97711.19
2022-07-25T14:33:41.393Z,97721.22
2022-07-25T14:36:47.906Z,97714.56
2022-07-25T14:39:54.231Z,97706.31
2022-07-25T14:42:59.877Z,97701.31
2022-07-25T14:46:14.444Z,97702.53
2022-07-25T14:49:20.126Z,97696.00
2022-07-25T14:52:32.800Z,97698.41
2022-07-25T14:55:48.158Z,97687.88
2022-07-25T14:58:53.731Z,97679.78
2022-07-25T15:02:08.773Z,97676.84
2022-07-25T15:05:14.503Z,97673.19
2022-07-25T15:08:20.217Z,97675.28
2022-07-25T15:11:27.284Z,97661.66
2022-07-25T15:14:32.984Z,97655.91
2022-07-25T15:17:43.902Z,97644.25
2022-07-25T15:20:49.460Z,97638.97
2022-07-25T15:23:57.536Z,97644.06
2022-07-25T15:27:04.182Z,97640.03
2022-07-25T15:30:11.629Z,97645.41
2022-07-25T15:33:20.220Z,97639.75
2022-07-25T15:36:29.355Z,97637.03
2022-07-25T15:39:35.459Z,97635.16
2022-07-25T15:42:42.517Z,97631.63
2022-07-25T15:45:50.215Z,97633.47
2022-07-25T15:48:58.622Z,97631.50
2022-07-25T15:52:09.617Z,97624.94
2022-07-25T15:55:15.853Z,97622.13
2022-07-25T15:58:21.626Z,97631.22
2022-07-25T16:01:27.260Z,97617.28
2022-07-25T16:04:35.633Z,97606.19
2022-07-25T16:07:43.136Z,97616.88
2022-07-25T16:10:48.659Z,97611.91
2022-07-25T16:13:54.356Z,97617.16
2022-07-25T16:16:59.972Z,97603.13
2022-07-25T16:20:15.812Z,97602.19
2022-07-25T16:23:23.340Z,97596.81
2022-07-25T16:26:29.768Z,97590.75
2022-07-25T16:29:37.741Z,97591.91
2022-07-25T16:32:51.464Z,97596.47
2022-07-25T16:36:03.907Z,97595.88
2022-07-25T16:39:12.465Z,97595.44
2022-07-25T16:42:18.015Z,97596.94
2022-07-25T16:45:23.671Z,97589.44
2022-07-25T16:48:38.199Z,97586.94
2022-07-25T16:51:47.764Z,97590.13
2022-07-25T16:54:56.450Z,97581.38
2022-07-25T16:58:08.900Z,97589.53
2022-07-25T17:01:22.924Z,97584.84
2022-07-25T17:04:30.194Z,97583.13
2022-07-25T17:07:40.265Z,97585.81
2022-07-25T17:10:50.646Z,97569.56
2022-07-25T17:13:56.396Z,97581.66
2022-07-25T17:17:02.325Z,97569.53
2022-07-25T17:20:09.677Z,97572.44
2022-07-25T17:23:24.754Z,97565.91
2022-07-25T17:26:30.365Z,97559.88
2022-07-25T17:29:46.004Z,97559.06
2022-07-25T17:32:52.372Z,97559.03
2022-07-25T17:35:59.935Z,97553.31
2022-07-25T17:39:18.173Z,97555.41
2022-07-25T17:42:24.113Z,97559.44
2022-07-25T17:45:29.762Z,97560.88
2022-07-25T17:48:36.314Z,97560.97
2022-07-25T17:51:41.851Z,97564.00
2022-07-25T17:54:49.995Z,97560.97
2022-07-25T17:57:55.915Z,97557.66
2022-07-25T18:01:09.977Z,97553.19
2022-07-25T18:04:19.507Z,97550.09
2022-07-25T18:07:25.260Z,97545.81
2022-07-25T18:10:39.893Z,97537.44
2022-07-25T18:13:50.122Z,97536.16
2022-07-25T18:16:55.939Z,97532.91
2022-07-25T18:20:01.674Z,97529.44
2022-07-25T18:23:09.936Z,97527.41
2022-07-25T18:26:18.764Z,97531.13
2022-07-25T18:29:26.857Z,97521.59
2022-07-25T18:32:33.107Z,97511.13
2022-07-25T18:35:39.494Z,97521.88
2022-07-25T18:38:45.612Z,97515.09
2022-07-25T18:41:54.576Z,97513.72
2022-07-25T18:45:00.675Z,97513.22
2022-07-25T18:48:18.274Z,97514.53
2022-07-25T18:51:23.987Z,97517.47
2022-07-25T18:54:31.032Z,97514.66
2022-07-25T18:57:40.226Z,97502.56
2022-07-25T19:00:48.707Z,97510.06
2022-07-25T19:03:57.926Z,97505.63
2022-07-25T19:07:04.582Z,97501.63
2022-07-25T19:10:11.337Z,97510.88
2022-07-25T19:13:46.608Z,97499.81
2022-07-25T19:16:46.664Z,97500.69
2022-07-25T19:19:52.357Z,97505.91
2022-07-25T19:22:58.060Z,97495.50
2022-07-25T19:26:12.028Z,97499.34
2022-07-25T19:29:23.828Z,97496.69
2022-07-25T19:32:29.817Z,97497.06
2022-07-25T19:35:42.408Z,97498.63
2022-07-25T19:38:53.250Z,97498.13
2022-07-25T19:41:59.241Z,97498.53
2022-07-25T19:45:09.233Z,97492.91
2022-07-25T19:48:14.937Z,97491.06
2022-07-25T19:51:35.096Z,97488.75
2022-07-25T19:54:41.251Z,97494.84
2022-07-25T19:57:47.400Z,97489.63
2022-07-25T20:00:58.064Z,97491.03
2022-07-25T20:04:05.624Z,97486.81
2022-07-25T20:07:11.714Z,97499.06
2022-07-25T20:10:17.781Z,97495.56
2022-07-25T20:13:23.656Z,97494.03
2022-07-25T20:16:31.998Z,97499.47
2022-07-25T20:19:38.417Z,97498.13
2022-07-25T20:22:45.532Z,97500.00
2022-07-25T20:25:54.243Z,97505.00
2022-07-25T20:28:59.916Z,97485.75
2022-07-25T20:32:09.089Z,97487.94
2022-07-25T20:35:15.064Z,97492.88
2022-07-25T20:38:20.731Z,97490.13
2022-07-25T20:41:26.850Z,97487.44
2022-07-25T20:44:34.590Z,97483.41
2022-07-25T20:47:42.762Z,97492.09
2022-07-25T20:50:48.324Z,97486.13
2022-07-25T20:53:53.991Z,97483.16
2022-07-25T20:56:59.552Z,97484.81
2022-07-25T21:00:05.381Z,97485.91
2022-07-25T21:03:13.774Z,97482.69
2022-07-25T21:06:20.107Z,97487.28
2022-07-25T21:09:37.821Z,97486.75
2022-07-25T21:12:45.467Z,97478.06
2022-07-25T21:15:51.098Z,97474.00
2022-07-25T21:19:00.572Z,97473.19
2022-07-25T21:22:06.342Z,97480.53
2022-07-25T21:25:14.430Z,97486.50
2022-07-25T21:28:19.937Z,97487.03
2022-07-25T21:31:25.780Z,97502.22
2022-07-25T21:34:34.250Z,97487.56
2022-07-25T21:37:40.261Z,97474.31
2022-07-25T21:40:45.898Z,97469.94
2022-07-25T21:43:51.556Z,97482.16
2022-07-25T21:46:57.115Z,97480.28
2022-07-25T21:50:24.503Z,97476.19
2022-07-25T21:53:31.996Z,97475.09
2022-07-25T21:56:37.610Z,97459.88
2022-07-25T21:59:43.239Z,97458.81
2022-07-25T22:02:50.400Z,97454.44
2022-07-25T22:05:58.629Z,97453.06
2022-07-25T22:09:04.922Z,97449.81
2022-07-25T22:12:11.997Z,97447.63
2022-07-25T22:15:18.591Z,97451.88
2022-07-25T22:18:28.196Z,97448.03
2022-07-25T22:21:38.309Z,97439.09
2022-07-25T22:24:46.593Z,97440.66
2022-07-25T22:27:52.460Z,97439.06
2022-07-25T22:30:58.116Z,97431.75
2022-07-25T22:34:03.744Z,97430.31
2022-07-25T22:37:11.883Z,97420.31
2022-07-25T22:40:17.848Z,97418.13
2022-07-25T22:43:23.436Z,97407.63
2022-07-25T22:46:49.152Z,97400.31
2022-07-25T22:49:54.736Z,97410.84
2022-07-25T22:53:02.994Z,97401.09
2022-07-25T22:56:08.725Z,97404.81
2022-07-25T22:59:16.315Z,97399.16
2022-07-25T23:02:21.985Z,97390.16
2022-07-25T23:05:31.644Z,97377.44
2022-07-25T23:08:43.622Z,97375.72
2022-07-25T23:11:49.303Z,97388.34
2022-07-25T23:14:55.960Z,97386.66
2022-07-25T23:18:05.478Z,97399.22
2022-07-25T23:21:11.353Z,97401.75
2022-07-25T23:24:19.526Z,97399.03
2022-07-25T23:27:25.642Z,97389.56
2022-07-25T23:30:34.195Z,97391.97
2022-07-25T23:33:42.276Z,97392.31
2022-07-25T23:36:47.855Z,97384.19
2022-07-25T23:39:56.661Z,97388.81
2022-07-25T23:43:02.475Z,97383.31
2022-07-25T23:46:09.782Z,97388.66
2022-07-25T23:49:17.274Z,97378.19
2022-07-25T23:52:22.896Z,97378.84
2022-07-25T23:55:31.283Z,97383.06
2022-07-25T23:58:36.826Z,97380.59
